Algiers, Louisiana
Current Conditions -  °F | °C
As of 10:55 AM on Tuesday 27 Jan 2015 (Local Time) from KNBG Reporting Station
Scattered Clouds Scattered Clouds  
Wind Chill: 66°   Ceiling: Unl
Heat Index: 66°   Visibility: 10mi
Dew Point: 38°   Wind: 7mph
Humidity: 36%   Direction: NA
Pressure: 30.14"   Gusts: NA
Location:  29.935°N, 90.0314°W
Report Text: KNBG 271655Z VRB06KT 10SM SCT250 19/03 A3014 RMK AO2 SLP205 T01890033 $
Loading
Personal Weather Stations






























Interactive Weather Map New forecast layout! Learn more

10-Day Weather Forecast

Advertisements
Track Severe Weather on mobile